Adventuress — WCX8691 — position and weather

sailwx.info

Track history (hours):
 
Tides and Currents Weather Stations Pressure Air Temp Water Temp Dewpoint Dewpoint Depression Visibility Wind Speed Wind Dir Waves Ship Positions

Adventuress (United States)

Ship's website: http://www.soundexp.org/

Owner: SOUND EXPERIENCE, PORT TOWNSEND, WA. More information available from US FCC via Universal Licensing System and Coast Guard Vessel Documentation Center.

Last reported at 2016-Sep-28 21:33 UTC. Time now 2016-Sep-30 10:09 UTC.
Position N 47°20' W 122°27'.

Type: Passenger vessel. MMSI: 367323180.

Date/timePositionNaut miles runAvg speedWind from/ knotsBaromVisibWave heightAir tempDewpointWater temp
2016-Sep-28 21:33N 47°20' W 122°27'8 3.9
2016-Sep-28 19:33N 47°27' W 122°23'14 4.5
2016-Sep-28 16:32N 47°41' W 122°24'0 0.0
2016-Sep-28 15:29N 47°41' W 122°24'0 0.0
2016-Sep-28 12:32N 47°41' W 122°24'0 0.0
2016-Sep-28 08:32N 47°41' W 122°24'0 0.0
2016-Sep-28 03:32N 47°41' W 122°24'0 0.0
2016-Sep-28 02:29N 47°41' W 122°24'0 0.0
2016-Sep-28 01:32N 47°41' W 122°24'0 0.0
2016-Sep-27 23:32N 47°41' W 122°24'0 0.0
2016-Sep-27 19:29N 47°41' W 122°24'0 0.0
2016-Sep-27 14:26N 47°41' W 122°24'0 0.0
2016-Sep-27 13:23N 47°41' W 122°24'0 0.0
2016-Sep-27 10:26N 47°41' W 122°24'1 0.1
2016-Sep-27 00:33N 47°41' W 122°25'1 0.3
2016-Sep-26 20:32N 47°42' W 122°26'1 1.1
2016-Sep-26 19:33N 47°42' W 122°27'2 0.6
2016-Sep-26 15:32N 47°41' W 122°24'0 0.0
2016-Sep-26 13:33N 47°41' W 122°24'0 0.0
2016-Sep-26 11:33N 47°41' W 122°24'0 0.0
2016-Sep-26 08:33N 47°41' W 122°24'0 0.0
2016-Sep-26 02:33N 47°41' W 122°24'0 0.0
2016-Sep-26 01:33N 47°41' W 122°24'0 0.0
2016-Sep-26 00:33N 47°41' W 122°24'1 0.4
2016-Sep-25 21:33N 47°40' W 122°26'4 0.2
2016-Sep-24 22:33N 47°36' W 122°25'0 0.2
2016-Sep-24 21:33N 47°36' W 122°26'4 2.0
2016-Sep-24 19:33N 47°40' W 122°28'1 1.1
2016-Sep-24 18:33N 47°40' W 122°26'1 1.3
2016-Sep-24 17:33N 47°41' W 122°24'0 0.0
2016-Sep-24 16:33N 47°41' W 122°24'0 0.0
2016-Sep-24 14:33N 47°41' W 122°24'0 0.0
2016-Sep-24 12:33N 47°41' W 122°24'0 0.0
2016-Sep-24 10:30N 47°41' W 122°24'0 0.0
2016-Sep-24 09:34N 47°41' W 122°24'0 0.0
2016-Sep-24 03:33N 47°41' W 122°24'0 0.0
2016-Sep-24 02:30N 47°41' W 122°24'0 0.0
2016-Sep-24 01:33N 47°41' W 122°24'0 0.0
2016-Sep-24 00:33N 47°41' W 122°24'0 0.0
2016-Sep-23 19:33N 47°41' W 122°24'0 0.0
2016-Sep-23 17:33N 47°41' W 122°24'0 0.0
2016-Sep-23 16:33N 47°41' W 122°24'0 0.0
2016-Sep-23 15:33N 47°41' W 122°24'0 0.0
2016-Sep-23 13:33N 47°41' W 122°24'0 0.0
2016-Sep-23 09:33N 47°41' W 122°24'0 0.0
2016-Sep-23 06:33N 47°41' W 122°24'0 0.0
2016-Sep-23 04:30N 47°41' W 122°24'0 0.0
2016-Sep-23 03:33N 47°41' W 122°24'0 0.0
2016-Sep-23 02:33N 47°41' W 122°24'0 0.0
2016-Sep-23 01:33N 47°41' W 122°24'0 0.0
2016-Sep-23 00:33N 47°41' W 122°24'1 0.9
2016-Sep-22 23:33N 47°41' W 122°26'5 1.6
2016-Sep-22 20:33N 47°37' W 122°31'3 0.1
2016-Sep-21 22:23N 47°35' W 122°28'1 0.3
2016-Sep-21 19:30N 47°34' W 122°28'3 0.1
2016-Sep-19 23:04N 47°37' W 122°30'0 0.0
2016-Sep-19 19:33N 47°37' W 122°31'3 3.4
2016-Sep-19 18:33N 47°39' W 122°27'2 1.0
2016-Sep-19 16:27N 47°41' W 122°24'0 0.0
2016-Sep-19 14:33N 47°41' W 122°24'0 0.0
2016-Sep-19 13:33N 47°41' W 122°24'0 0.0
2016-Sep-19 12:33N 47°41' W 122°24'0 0.0
2016-Sep-19 11:33N 47°41' W 122°24'0 0.0
2016-Sep-19 09:33N 47°41' W 122°24'0 0.0
2016-Sep-19 07:33N 47°41' W 122°24'0 0.0
2016-Sep-19 06:33N 47°41' W 122°24'0 0.0
2016-Sep-19 03:24N 47°41' W 122°24'0 0.0
2016-Sep-19 02:33N 47°41' W 122°24'1 0.3
2016-Sep-19 00:33N 47°41' W 122°25'  
Track history (hours):
 
Tides and Currents Weather Stations Pressure Air Temp Water Temp Dewpoint Dewpoint Depression Visibility Wind Speed Wind Dir Waves Ship Positions

Adventuress (United States)

Ship's website: http://www.soundexp.org/

Owner: SOUND EXPERIENCE, PORT TOWNSEND, WA. More information available from US FCC via Universal Licensing System and Coast Guard Vessel Documentation Center.

Last reported at 2016-Sep-28 21:33 UTC. Time now 2016-Sep-30 10:09 UTC.
Position N 47°20' W 122°27'.

Type: Passenger vessel. MMSI: 367323180.

Date/timePositionNaut miles runAvg speedWind from/ knotsBaromVisibWave heightAir tempDewpointWater temp
2016-Sep-28 21:33N 47°20' W 122°27'8 3.9
2016-Sep-28 19:33N 47°27' W 122°23'14 4.5
2016-Sep-28 16:32N 47°41' W 122°24'0 0.0
2016-Sep-28 15:29N 47°41' W 122°24'0 0.0
2016-Sep-28 12:32N 47°41' W 122°24'0 0.0
2016-Sep-28 08:32N 47°41' W 122°24'0 0.0
2016-Sep-28 03:32N 47°41' W 122°24'0 0.0
2016-Sep-28 02:29N 47°41' W 122°24'0 0.0
2016-Sep-28 01:32N 47°41' W 122°24'0 0.0
2016-Sep-27 23:32N 47°41' W 122°24'0 0.0
2016-Sep-27 19:29N 47°41' W 122°24'0 0.0
2016-Sep-27 14:26N 47°41' W 122°24'0 0.0
2016-Sep-27 13:23N 47°41' W 122°24'0 0.0
2016-Sep-27 10:26N 47°41' W 122°24'1 0.1
2016-Sep-27 00:33N 47°41' W 122°25'1 0.3
2016-Sep-26 20:32N 47°42' W 122°26'1 1.1
2016-Sep-26 19:33N 47°42' W 122°27'2 0.6
2016-Sep-26 15:32N 47°41' W 122°24'0 0.0
2016-Sep-26 13:33N 47°41' W 122°24'0 0.0
2016-Sep-26 11:33N 47°41' W 122°24'0 0.0
2016-Sep-26 08:33N 47°41' W 122°24'0 0.0
2016-Sep-26 02:33N 47°41' W 122°24'0 0.0
2016-Sep-26 01:33N 47°41' W 122°24'0 0.0
2016-Sep-26 00:33N 47°41' W 122°24'1 0.4
2016-Sep-25 21:33N 47°40' W 122°26'4 0.2
2016-Sep-24 22:33N 47°36' W 122°25'0 0.2
2016-Sep-24 21:33N 47°36' W 122°26'4 2.0
2016-Sep-24 19:33N 47°40' W 122°28'1 1.1
2016-Sep-24 18:33N 47°40' W 122°26'1 1.3
2016-Sep-24 17:33N 47°41' W 122°24'0 0.0
2016-Sep-24 16:33N 47°41' W 122°24'0 0.0
2016-Sep-24 14:33N 47°41' W 122°24'0 0.0
2016-Sep-24 12:33N 47°41' W 122°24'0 0.0
2016-Sep-24 10:30N 47°41' W 122°24'0 0.0
2016-Sep-24 09:34N 47°41' W 122°24'0 0.0
2016-Sep-24 03:33N 47°41' W 122°24'0 0.0
2016-Sep-24 02:30N 47°41' W 122°24'0 0.0
2016-Sep-24 01:33N 47°41' W 122°24'0 0.0
2016-Sep-24 00:33N 47°41' W 122°24'0 0.0
2016-Sep-23 19:33N 47°41' W 122°24'0 0.0
2016-Sep-23 17:33N 47°41' W 122°24'0 0.0
2016-Sep-23 16:33N 47°41' W 122°24'0 0.0
2016-Sep-23 15:33N 47°41' W 122°24'0 0.0
2016-Sep-23 13:33N 47°41' W 122°24'0 0.0
2016-Sep-23 09:33N 47°41' W 122°24'0 0.0
2016-Sep-23 06:33N 47°41' W 122°24'0 0.0
2016-Sep-23 04:30N 47°41' W 122°24'0 0.0
2016-Sep-23 03:33N 47°41' W 122°24'0 0.0
2016-Sep-23 02:33N 47°41' W 122°24'0 0.0
2016-Sep-23 01:33N 47°41' W 122°24'0 0.0
2016-Sep-23 00:33N 47°41' W 122°24'1 0.9
2016-Sep-22 23:33N 47°41' W 122°26'5 1.6
2016-Sep-22 20:33N 47°37' W 122°31'3 0.1
2016-Sep-21 22:23N 47°35' W 122°28'1 0.3
2016-Sep-21 19:30N 47°34' W 122°28'3 0.1
2016-Sep-19 23:04N 47°37' W 122°30'0 0.0
2016-Sep-19 19:33N 47°37' W 122°31'3 3.4
2016-Sep-19 18:33N 47°39' W 122°27'2 1.0
2016-Sep-19 16:27N 47°41' W 122°24'0 0.0
2016-Sep-19 14:33N 47°41' W 122°24'0 0.0
2016-Sep-19 13:33N 47°41' W 122°24'0 0.0
2016-Sep-19 12:33N 47°41' W 122°24'0 0.0
2016-Sep-19 11:33N 47°41' W 122°24'0 0.0
2016-Sep-19 09:33N 47°41' W 122°24'0 0.0
2016-Sep-19 07:33N 47°41' W 122°24'0 0.0
2016-Sep-19 06:33N 47°41' W 122°24'0 0.0
2016-Sep-19 03:24N 47°41' W 122°24'0 0.0
2016-Sep-19 02:33N 47°41' W 122°24'1 0.3
2016-Sep-19 00:33N 47°41' W 122°25'  

Dump ship's entire track history